Barneveld, Wisconsin
Current Conditions -  °F | °C
As of 3:35 PM on Friday 31 Oct 2014 (Local Time) from KMRJ Reporting Station
Broken Clouds Broken Clouds  
Wind Chill: 33°   Ceiling: 5000
Heat Index: 41°   Visibility: 10mi
Dew Point: 16°   Wind: 14mph
Humidity: 36%   Direction: 10°N
Pressure: 30.35"   Gusts: 22mph
Location:  43.02°N, 89.9°W
Report Text: KMRJ 312035Z AUTO 01012G19KT 10SM BKN050 05/M09 A3035 RMK AO2
Loading
Personal Weather Stations






























Interactive Weather Map
Tropical Storm Tracking
New forecast layout! Learn more

10-Day Weather Forecast

Advertisements
Track Severe Weather on mobile